createdAt,value
2018-12-21T00:02:01.216Z,44.63
2018-12-21T00:04:29.497Z,47.13
2018-12-21T00:06:57.904Z,43.30
2018-12-21T00:09:26.102Z,44.07
2018-12-21T00:11:54.339Z,55.73
2018-12-21T00:14:22.617Z,47.03
2018-12-21T00:16:50.809Z,47.83
2018-12-21T00:19:19.126Z,45.90
2018-12-21T00:21:47.500Z,43.83
2018-12-21T00:24:15.682Z,50.47
2018-12-21T00:26:43.965Z,50.83
2018-12-21T00:29:12.100Z,51.07
2018-12-21T00:31:46.028Z,45.07
2018-12-21T00:34:20.139Z,48.53
2018-12-21T00:36:54.257Z,46.33
2018-12-21T00:39:28.283Z,51.90
2018-12-21T00:41:56.437Z,58.67
2018-12-21T00:44:26.677Z,49.70
2018-12-21T00:46:56.232Z,53.03
2018-12-21T00:49:25.960Z,50.53
2018-12-21T00:51:54.256Z,55.83
2018-12-21T00:54:22.536Z,46.70
2018-12-21T00:56:50.722Z,51.37
2018-12-21T00:59:18.838Z,54.63
2018-12-21T01:01:47.129Z,57.43
2018-12-21T01:04:15.313Z,53.57
2018-12-21T01:06:43.460Z,54.07
2018-12-21T01:09:11.777Z,60.90
2018-12-21T01:11:40.023Z,58.30
2018-12-21T01:14:08.191Z,54.23
2018-12-21T01:16:36.356Z,56.70
2018-12-21T01:19:04.568Z,54.97
2018-12-21T01:21:38.782Z,65.90
2018-12-21T01:24:04.454Z,57.43
2018-12-21T01:26:32.648Z,55.03
2018-12-21T01:29:01.078Z,53.00
2018-12-21T01:31:29.307Z,59.00
2018-12-21T01:33:57.540Z,61.37
2018-12-21T01:36:25.773Z,60.50
2018-12-21T01:38:53.990Z,51.63
2018-12-21T01:41:22.272Z,56.80
2018-12-21T01:43:50.645Z,49.27
2018-12-21T01:46:18.907Z,52.70
2018-12-21T01:48:47.188Z,54.30
2018-12-21T01:51:15.499Z,53.53
2018-12-21T01:53:43.734Z,54.13
2018-12-21T01:56:11.968Z,62.73
2018-12-21T01:58:40.144Z,51.40
2018-12-21T02:01:08.346Z,55.37
2018-12-21T02:03:36.821Z,57.53
2018-12-21T02:06:05.017Z,58.47
2018-12-21T02:08:33.305Z,60.00
2018-12-21T02:11:01.487Z,60.87
2018-12-21T02:13:29.725Z,68.43
2018-12-21T02:15:57.883Z,54.03
2018-12-21T02:18:26.099Z,55.30
2018-12-21T02:23:51.363Z,59.40
2018-12-21T02:26:19.609Z,60.57
2018-12-21T02:28:47.910Z,54.50
2018-12-21T02:31:16.117Z,56.23
2018-12-21T02:33:44.301Z,52.00
2018-12-21T02:36:12.455Z,56.90
2018-12-21T02:38:40.688Z,57.43
2018-12-21T02:41:08.944Z,53.53
2018-12-21T02:43:37.466Z,60.43
2018-12-21T02:46:05.798Z,61.17
2018-12-21T02:48:34.096Z,66.50
2018-12-21T02:51:02.277Z,55.10
2018-12-21T02:53:30.563Z,56.20
2018-12-21T02:55:58.872Z,52.50
2018-12-21T02:58:27.213Z,54.90
2018-12-21T03:00:55.366Z,58.83
2018-12-21T03:03:23.664Z,63.23
2018-12-21T03:05:51.941Z,58.27
2018-12-21T03:08:20.218Z,64.57
2018-12-21T03:10:48.404Z,61.07
2018-12-21T03:13:16.611Z,55.30
2018-12-21T03:15:44.858Z,57.60
2018-12-21T03:18:13.261Z,54.97
2018-12-21T03:20:41.538Z,48.20
2018-12-21T03:23:09.677Z,54.67
2018-12-21T03:25:37.931Z,54.80
2018-12-21T03:28:06.343Z,58.73
2018-12-21T03:30:34.516Z,54.90
2018-12-21T03:33:02.803Z,58.23
2018-12-21T03:35:31.008Z,49.30
2018-12-21T03:37:59.171Z,56.80
2018-12-21T03:40:27.510Z,56.63
2018-12-21T03:42:55.761Z,58.10
2018-12-21T03:45:24.004Z,47.97
2018-12-21T03:47:52.217Z,53.43
2018-12-21T03:50:20.404Z,55.77
2018-12-21T03:52:48.619Z,55.70
2018-12-21T03:55:16.818Z,51.70
2018-12-21T03:57:44.975Z,51.87
2018-12-21T04:00:13.214Z,48.77
2018-12-21T04:02:41.383Z,49.20
2018-12-21T04:05:09.672Z,50.63
2018-12-21T04:07:37.930Z,51.27
2018-12-21T04:10:06.197Z,54.53
2018-12-21T04:12:34.436Z,55.97
2018-12-21T04:15:02.610Z,47.50
2018-12-21T04:17:31.073Z,48.50
2018-12-21T04:19:59.741Z,50.47
2018-12-21T04:22:33.969Z,48.23
2018-12-21T04:24:58.249Z,55.77
2018-12-21T04:27:26.446Z,46.97
2018-12-21T04:29:54.679Z,50.17
2018-12-21T04:32:22.952Z,48.23
2018-12-21T04:34:51.165Z,54.93
2018-12-21T04:37:19.788Z,49.43
2018-12-21T04:39:47.990Z,47.10
2018-12-21T04:42:16.216Z,44.13
2018-12-21T04:44:44.345Z,50.40
2018-12-21T04:47:12.612Z,52.90
2018-12-21T04:49:41.011Z,47.03
2018-12-21T04:52:09.518Z,49.23
2018-12-21T04:54:37.838Z,51.70
2018-12-21T04:57:06.152Z,49.63
2018-12-21T04:59:34.427Z,49.77
2018-12-21T05:02:02.766Z,45.80
2018-12-21T05:04:31.041Z,48.77
2018-12-21T05:06:59.224Z,47.17
2018-12-21T05:09:27.514Z,45.00
2018-12-21T05:11:55.787Z,49.20
2018-12-21T05:14:24.010Z,51.13
2018-12-21T05:16:52.250Z,46.60
2018-12-21T05:19:20.431Z,44.77
2018-12-21T05:21:48.679Z,40.47
2018-12-21T05:24:17.016Z,43.07
2018-12-21T05:26:45.166Z,40.27
2018-12-21T05:29:13.335Z,43.83
2018-12-21T05:31:41.742Z,35.57
2018-12-21T05:34:09.995Z,42.70
2018-12-21T05:36:38.187Z,41.93
2018-12-21T05:39:06.652Z,39.40
2018-12-21T05:41:35.140Z,46.33
2018-12-21T05:44:03.424Z,43.83
2018-12-21T05:46:31.660Z,47.10
2018-12-21T05:48:59.876Z,46.63
2018-12-21T05:51:28.148Z,40.57
2018-12-21T05:53:56.452Z,42.90
2018-12-21T05:56:24.795Z,44.57
2018-12-21T05:58:53.033Z,47.63
2018-12-21T06:01:21.216Z,44.13
2018-12-21T06:03:49.476Z,41.57
2018-12-21T06:06:17.668Z,45.73
2018-12-21T06:08:45.827Z,43.27
2018-12-21T06:11:13.996Z,51.57
2018-12-21T06:13:42.361Z,55.70
2018-12-21T06:16:10.498Z,44.97
2018-12-21T06:18:38.694Z,45.77
2018-12-21T06:21:07.060Z,42.03
2018-12-21T06:23:35.533Z,39.27
2018-12-21T06:26:03.715Z,37.33
2018-12-21T06:28:31.935Z,39.80
2018-12-21T06:31:00.114Z,35.33
2018-12-21T06:33:28.288Z,38.77
2018-12-21T06:35:56.525Z,42.03
2018-12-21T06:38:24.746Z,42.03
2018-12-21T06:40:52.952Z,39.33
2018-12-21T06:43:21.618Z,43.13
2018-12-21T06:45:50.608Z,37.07
2018-12-21T06:48:18.849Z,34.27
2018-12-21T06:50:47.046Z,40.23
2018-12-21T06:53:18.016Z,40.67
2018-12-21T06:55:45.539Z,41.63
2018-12-21T06:58:13.795Z,38.83
2018-12-21T07:00:41.978Z,37.30
2018-12-21T07:03:17.013Z,42.23
2018-12-21T07:08:06.948Z,38.83
2018-12-21T07:10:35.260Z,39.57
2018-12-21T07:13:03.468Z,35.97
2018-12-21T07:15:31.668Z,37.50
2018-12-21T07:18:00.011Z,37.83
2018-12-21T07:20:28.219Z,30.50
2018-12-21T07:22:56.459Z,35.73
2018-12-21T07:25:24.899Z,36.00
2018-12-21T07:27:53.983Z,32.53
2018-12-21T07:30:22.317Z,29.63
2018-12-21T07:32:50.606Z,37.70
2018-12-21T07:35:18.950Z,36.00
2018-12-21T07:37:47.327Z,30.63
2018-12-21T07:40:15.607Z,33.23
2018-12-21T07:42:43.804Z,32.57
2018-12-21T07:45:12.157Z,34.47
2018-12-21T07:47:40.413Z,28.03
2018-12-21T07:50:10.098Z,32.63
2018-12-21T07:52:38.548Z,34.43
2018-12-21T07:55:06.983Z,36.23
2018-12-21T07:57:35.131Z,37.07
2018-12-21T08:00:04.123Z,35.50
2018-12-21T08:02:32.323Z,34.17
2018-12-21T08:05:00.545Z,40.33
2018-12-21T08:07:28.739Z,41.20
2018-12-21T08:09:56.973Z,31.00
2018-12-21T08:12:27.270Z,32.77
2018-12-21T08:14:55.473Z,36.83
2018-12-21T08:17:23.627Z,38.97
2018-12-21T08:19:51.814Z,33.63
2018-12-21T08:22:20.011Z,40.10
2018-12-21T08:24:48.227Z,35.00
2018-12-21T08:27:16.489Z,36.83
2018-12-21T08:29:44.730Z,36.47
2018-12-21T08:32:12.883Z,39.73
2018-12-21T08:34:41.107Z,38.03
2018-12-21T08:37:09.309Z,38.27
2018-12-21T08:39:37.544Z,32.10
2018-12-21T08:42:05.777Z,29.73
2018-12-21T08:44:33.975Z,31.50
2018-12-21T08:47:02.141Z,34.70
2018-12-21T08:49:32.297Z,33.90
2018-12-21T08:52:00.531Z,35.10
2018-12-21T08:54:28.730Z,33.20
2018-12-21T08:56:56.974Z,34.13
2018-12-21T08:59:25.192Z,30.57
2018-12-21T09:01:53.383Z,32.70
2018-12-21T09:04:21.616Z,32.07
2018-12-21T09:06:49.816Z,34.17
2018-12-21T09:09:18.022Z,35.77
2018-12-21T09:11:46.223Z,29.17
2018-12-21T09:14:14.421Z,32.07
2018-12-21T09:16:42.612Z,26.40
2018-12-21T09:19:12.224Z,27.87
2018-12-21T09:21:40.642Z,24.77
2018-12-21T09:24:08.872Z,25.43
2018-12-21T09:26:37.036Z,24.43
2018-12-21T09:29:05.466Z,23.37
2018-12-21T09:31:33.714Z,25.70
2018-12-21T09:34:01.903Z,28.47
2018-12-21T09:36:30.057Z,27.73
2018-12-21T09:38:58.207Z,32.27
2018-12-21T09:41:26.358Z,32.73
2018-12-21T09:43:54.527Z,31.77
2018-12-21T09:46:22.704Z,45.50
2018-12-21T09:48:50.906Z,38.77
2018-12-21T09:51:19.072Z,28.97
2018-12-21T09:53:47.275Z,28.47
2018-12-21T09:56:15.496Z,31.67
2018-12-21T09:58:43.647Z,32.83
2018-12-21T10:01:11.811Z,32.40
2018-12-21T10:03:39.974Z,29.33
2018-12-21T10:06:09.557Z,34.10
2018-12-21T10:08:37.973Z,31.53
2018-12-21T10:11:06.168Z,24.67
2018-12-21T10:13:34.344Z,29.00
2018-12-21T10:16:02.550Z,20.37
2018-12-21T10:18:30.770Z,26.37
2018-12-21T10:20:58.947Z,24.23
2018-12-21T10:23:27.121Z,19.40
2018-12-21T10:25:55.303Z,21.40
2018-12-21T10:28:24.802Z,18.07
2018-12-21T10:30:53.247Z,18.40
2018-12-21T10:33:21.487Z,23.60
2018-12-21T10:35:49.831Z,16.93
2018-12-21T10:38:18.070Z,25.13
2018-12-21T10:40:46.457Z,18.17
2018-12-21T10:43:14.633Z,16.60
2018-12-21T10:45:42.936Z,22.03
2018-12-21T10:48:11.139Z,18.80
2018-12-21T10:50:39.338Z,20.57
2018-12-21T10:53:07.509Z,19.67
2018-12-21T10:55:37.677Z,20.43
2018-12-21T10:58:06.061Z,17.80
2018-12-21T11:00:34.344Z,19.30
2018-12-21T11:03:02.718Z,20.17
2018-12-21T11:05:30.897Z,33.80
2018-12-21T11:07:59.339Z,21.70
2018-12-21T11:10:27.648Z,18.83
2018-12-21T11:12:55.812Z,17.47
2018-12-21T11:15:24.050Z,24.67
2018-12-21T11:17:52.374Z,21.70
2018-12-21T11:20:20.771Z,30.25
2018-12-21T11:22:48.989Z,21.23
2018-12-21T11:25:17.230Z,20.53
2018-12-21T11:27:45.479Z,26.27
2018-12-21T11:30:13.757Z,20.73
2018-12-21T11:32:41.953Z,23.80
2018-12-21T11:35:10.173Z,23.60
2018-12-21T11:37:38.457Z,21.77
2018-12-21T11:40:06.809Z,19.10
2018-12-21T11:42:35.115Z,17.07
2018-12-21T11:45:03.941Z,21.90
2018-12-21T11:47:32.166Z,18.83
2018-12-21T11:50:00.379Z,23.63
2018-12-21T11:52:28.632Z,19.37
2018-12-21T11:54:58.993Z,25.00
2018-12-21T11:57:27.142Z,19.73
2018-12-21T11:59:55.401Z,20.97
2018-12-21T12:02:23.763Z,22.57
2018-12-21T12:04:52.028Z,14.70
2018-12-21T12:07:20.250Z,18.03
2018-12-21T12:09:48.468Z,15.10
2018-12-21T12:12:16.727Z,22.83
2018-12-21T12:14:44.960Z,18.13
2018-12-21T12:17:13.178Z,15.97
2018-12-21T12:19:41.419Z,16.80
2018-12-21T12:22:09.601Z,18.87
2018-12-21T12:24:38.126Z,13.23
2018-12-21T12:27:06.409Z,15.47
2018-12-21T12:29:34.591Z,15.03
2018-12-21T12:32:02.760Z,18.00
2018-12-21T12:34:30.938Z,15.07
2018-12-21T12:36:59.229Z,21.33
2018-12-21T12:39:27.431Z,18.77
2018-12-21T12:41:55.676Z,14.00
2018-12-21T12:44:24.043Z,17.43
2018-12-21T12:46:52.226Z,13.03
2018-12-21T12:49:20.470Z,16.63
2018-12-21T12:51:48.687Z,14.40
2018-12-21T12:54:16.897Z,12.50
2018-12-21T12:56:45.199Z,15.50
2018-12-21T12:59:13.660Z,16.07
2018-12-21T13:01:42.004Z,13.80
2018-12-21T13:04:10.441Z,16.20
2018-12-21T13:06:38.719Z,13.17
2018-12-21T13:09:06.930Z,14.50
2018-12-21T13:11:35.111Z,13.77
2018-12-21T13:14:03.383Z,14.20
2018-12-21T13:16:31.621Z,13.53
2018-12-21T13:18:59.881Z,14.60
2018-12-21T13:21:28.037Z,13.83
2018-12-21T13:23:56.300Z,13.77
2018-12-21T13:26:24.541Z,11.87
2018-12-21T13:28:52.752Z,17.03
2018-12-21T13:31:21.117Z,14.57
2018-12-21T13:33:49.474Z,14.83
2018-12-21T13:36:17.783Z,16.77
2018-12-21T13:38:46.261Z,21.60
2018-12-21T13:41:14.648Z,21.80
2018-12-21T13:43:43.091Z,27.80
2018-12-21T13:46:11.303Z,34.20
2018-12-21T13:48:39.465Z,24.20
2018-12-21T13:51:07.676Z,19.70
2018-12-21T13:53:35.854Z,13.10
2018-12-21T13:56:04.135Z,13.10
2018-12-21T13:58:32.308Z,12.93
2018-12-21T14:01:00.471Z,11.87
2018-12-21T14:03:28.669Z,9.73
2018-12-21T14:05:56.855Z,12.20
2018-12-21T14:08:25.045Z,11.07
2018-12-21T14:10:53.435Z,15.83
2018-12-21T14:13:21.694Z,9.83
2018-12-21T14:15:49.882Z,10.33
2018-12-21T14:18:18.119Z,13.67
2018-12-21T14:20:46.416Z,12.37
2018-12-21T14:23:14.916Z,9.80
2018-12-21T14:25:43.281Z,8.97
2018-12-21T14:28:11.657Z,9.53
2018-12-21T14:30:39.969Z,10.60
2018-12-21T14:33:08.253Z,10.40
2018-12-21T14:35:36.636Z,13.73
2018-12-21T14:38:05.144Z,10.57
2018-12-21T14:40:33.459Z,10.60
2018-12-21T14:43:01.722Z,12.63
2018-12-21T14:45:30.001Z,9.77
2018-12-21T14:47:58.703Z,9.20
2018-12-21T14:50:26.988Z,9.97
2018-12-21T14:52:55.211Z,10.90
2018-12-21T14:55:23.421Z,10.80
2018-12-21T14:57:51.628Z,12.23
2018-12-21T15:00:19.911Z,14.10
2018-12-21T15:02:48.359Z,12.93
2018-12-21T15:05:16.518Z,9.87
2018-12-21T15:07:44.659Z,10.53
2018-12-21T15:10:14.747Z,13.03
2018-12-21T15:12:43.127Z,15.03
2018-12-21T15:15:11.386Z,15.07
2018-12-21T15:17:39.596Z,18.27
2018-12-21T15:20:08.168Z,21.47
2018-12-21T15:22:36.370Z,25.87
2018-12-21T15:25:05.804Z,31.97
2018-12-21T15:27:33.973Z,44.23
2018-12-21T15:30:02.298Z,54.97
2018-12-21T15:32:30.541Z,51.13
2018-12-21T15:34:58.692Z,32.23
2018-12-21T15:37:26.846Z,21.80
2018-12-21T15:39:55.027Z,14.90
2018-12-21T15:42:23.227Z,11.40
2018-12-21T15:44:51.407Z,13.40
2018-12-21T15:47:19.638Z,12.33
2018-12-21T15:49:47.830Z,9.67
2018-12-21T15:52:16.138Z,10.80
2018-12-21T15:54:44.329Z,11.87
2018-12-21T15:57:12.606Z,15.57
2018-12-21T15:59:40.743Z,15.03
2018-12-21T16:02:09.402Z,11.53
2018-12-21T16:04:37.730Z,12.87
2018-12-21T16:07:06.046Z,13.83
2018-12-21T16:09:34.309Z,10.63
2018-12-21T16:12:02.573Z,9.63
2018-12-21T16:14:34.474Z,12.93
2018-12-21T16:17:01.033Z,24.33
2018-12-21T16:19:30.565Z,26.47
2018-12-21T16:21:59.077Z,14.93
2018-12-21T16:24:27.347Z,10.77
2018-12-21T16:26:55.519Z,8.47
2018-12-21T16:29:23.730Z,11.33
2018-12-21T16:31:51.975Z,10.30
2018-12-21T16:34:20.117Z,8.97
2018-12-21T16:36:48.304Z,8.80
2018-12-21T16:39:16.520Z,8.77
2018-12-21T16:41:44.725Z,10.00
2018-12-21T16:44:12.914Z,10.13
2018-12-21T16:46:41.043Z,12.27
2018-12-21T16:49:09.277Z,10.27
2018-12-21T16:51:37.498Z,9.33
2018-12-21T16:54:05.763Z,9.13
2018-12-21T16:56:33.955Z,10.70
2018-12-21T16:59:02.117Z,9.30
2018-12-21T17:01:31.655Z,12.03
2018-12-21T17:04:00.036Z,9.97
2018-12-21T17:06:28.268Z,11.27
2018-12-21T17:08:56.478Z,11.40
2018-12-21T17:11:24.793Z,11.70
2018-12-21T17:13:52.998Z,10.07
2018-12-21T17:16:21.293Z,9.63
2018-12-21T17:18:49.545Z,9.50
2018-12-21T17:21:17.712Z,18.13
2018-12-21T17:23:45.859Z,18.87
2018-12-21T17:26:21.140Z,20.47
2018-12-21T17:28:44.499Z,21.73
2018-12-21T17:31:12.813Z,15.20
2018-12-21T17:33:41.281Z,18.17
2018-12-21T17:36:09.503Z,15.37
2018-12-21T17:38:37.684Z,19.10
2018-12-21T17:41:05.996Z,34.03
2018-12-21T17:43:34.163Z,23.10
2018-12-21T17:46:02.714Z,13.03
2018-12-21T17:48:30.874Z,11.83
2018-12-21T17:50:59.099Z,9.63
2018-12-21T17:53:27.290Z,10.70
2018-12-21T17:55:55.504Z,11.37
2018-12-21T17:58:23.756Z,13.90
2018-12-21T18:00:52.115Z,12.43
2018-12-21T18:03:22.657Z,12.87
2018-12-21T18:05:50.869Z,8.20
2018-12-21T18:08:19.041Z,9.37
2018-12-21T18:10:47.307Z,9.37
2018-12-21T18:13:15.465Z,9.03
2018-12-21T18:15:43.690Z,10.40
2018-12-21T18:18:11.876Z,9.80
2018-12-21T18:20:40.080Z,11.57
2018-12-21T18:23:10.649Z,11.67
2018-12-21T18:25:38.880Z,9.57
2018-12-21T18:28:11.123Z,15.03
2018-12-21T18:30:38.264Z,16.57
2018-12-21T18:33:10.922Z,12.37
2018-12-21T18:35:36.908Z,12.87
2018-12-21T18:38:05.152Z,13.03
2018-12-21T18:40:33.450Z,10.70
2018-12-21T18:43:01.660Z,10.67
2018-12-21T18:45:29.839Z,10.53
2018-12-21T18:47:58.035Z,16.50
2018-12-21T18:50:26.223Z,14.30
2018-12-21T18:52:54.494Z,16.40
2018-12-21T18:55:22.742Z,19.60
2018-12-21T18:57:51.018Z,14.70
2018-12-21T19:00:19.361Z,25.80
2018-12-21T19:02:47.636Z,26.87
2018-12-21T19:05:16.102Z,23.70
2018-12-21T19:07:44.338Z,27.67
2018-12-21T19:10:12.587Z,21.00
2018-12-21T19:12:40.976Z,19.93
2018-12-21T19:15:09.267Z,18.40
2018-12-21T19:17:38.889Z,15.30
2018-12-21T19:20:08.871Z,14.03
2018-12-21T19:22:37.406Z,18.40
2018-12-21T19:25:06.837Z,15.73
2018-12-21T19:27:35.030Z,13.37
2018-12-21T19:30:03.882Z,20.30
2018-12-21T19:32:32.126Z,16.73
2018-12-21T19:35:00.435Z,14.90
2018-12-21T19:37:28.898Z,21.03
2018-12-21T19:39:57.081Z,16.87
2018-12-21T19:42:25.329Z,15.23
2018-12-21T19:44:53.495Z,13.53
2018-12-21T19:47:21.765Z,7.27
2018-12-21T19:49:49.985Z,6.40
2018-12-21T19:52:18.241Z,4.73
2018-12-21T19:54:47.075Z,3.00
2018-12-21T19:57:15.238Z,1.77
2018-12-21T19:59:43.408Z,3.37
2018-12-21T20:02:11.575Z,2.37
2018-12-21T20:04:39.792Z,2.33
2018-12-21T20:07:08.062Z,1.40
2018-12-21T20:09:36.248Z,3.33
2018-12-21T20:12:04.605Z,3.13
2018-12-21T20:14:32.798Z,4.00
2018-12-21T20:17:00.942Z,4.70
2018-12-21T20:19:29.214Z,1.57
2018-12-21T20:21:57.450Z,3.57
2018-12-21T20:24:25.780Z,2.27
2018-12-21T20:26:54.010Z,2.80
2018-12-21T20:29:22.244Z,2.90
2018-12-21T20:31:50.405Z,1.80
2018-12-21T20:34:18.779Z,1.10
2018-12-21T20:36:47.048Z,1.00
2018-12-21T20:39:15.272Z,1.50
2018-12-21T20:41:43.609Z,1.63
2018-12-21T20:44:11.820Z,1.60
2018-12-21T20:46:40.043Z,1.03
2018-12-21T20:49:08.262Z,1.63
2018-12-21T20:51:38.240Z,0.93
2018-12-21T20:54:06.718Z,1.23
2018-12-21T20:56:34.882Z,2.33
2018-12-21T20:59:03.404Z,3.37
2018-12-21T21:01:31.665Z,2.37
2018-12-21T21:03:59.898Z,2.70
2018-12-21T21:06:28.176Z,6.63
2018-12-21T21:08:56.527Z,6.53
2018-12-21T21:11:26.051Z,7.80
2018-12-21T21:13:54.491Z,6.77
2018-12-21T21:16:22.724Z,11.77
2018-12-21T21:18:50.933Z,8.83
2018-12-21T21:21:19.153Z,9.77
2018-12-21T21:23:47.352Z,10.10
2018-12-21T21:26:15.593Z,14.13
2018-12-21T21:28:43.793Z,18.50
2018-12-21T21:31:12.045Z,18.17
2018-12-21T21:33:40.237Z,27.87
2018-12-21T21:36:08.460Z,28.03
2018-12-21T21:38:36.932Z,27.77
2018-12-21T21:41:05.152Z,27.90
2018-12-21T21:43:33.361Z,32.23
2018-12-21T21:46:02.215Z,30.07
2018-12-21T21:48:30.413Z,32.27
2018-12-21T21:50:58.684Z,24.30
2018-12-21T21:53:26.893Z,21.00
2018-12-21T21:55:55.073Z,17.33
2018-12-21T21:58:23.335Z,16.17
2018-12-21T22:00:51.665Z,17.73
2018-12-21T22:03:19.944Z,12.93
2018-12-21T22:05:48.221Z,14.67
2018-12-21T22:08:16.390Z,15.90
2018-12-21T22:10:44.573Z,14.27
2018-12-21T22:13:12.856Z,14.23
2018-12-21T22:15:41.074Z,15.40
2018-12-21T22:18:09.293Z,16.30
2018-12-21T22:20:37.650Z,19.13
2018-12-21T22:23:05.879Z,15.97
2018-12-21T22:25:34.250Z,20.73
2018-12-21T22:28:02.514Z,19.77
2018-12-21T22:30:30.888Z,23.97
2018-12-21T22:32:59.240Z,21.50
2018-12-21T22:35:27.533Z,23.03
2018-12-21T22:37:55.998Z,23.27
2018-12-21T22:40:24.238Z,19.30
2018-12-21T22:42:52.473Z,19.97
2018-12-21T22:45:20.959Z,17.60
2018-12-21T22:47:49.173Z,20.27
2018-12-21T22:50:17.444Z,21.83
2018-12-21T22:52:45.729Z,23.67
2018-12-21T22:55:13.926Z,21.40
2018-12-21T22:57:42.440Z,19.80
2018-12-21T23:00:13.062Z,22.37
2018-12-21T23:02:41.290Z,23.37
2018-12-21T23:05:09.936Z,21.93
2018-12-21T23:07:38.379Z,18.03
2018-12-21T23:10:07.574Z,21.67
2018-12-21T23:12:35.858Z,22.37
2018-12-21T23:15:04.361Z,21.37
2018-12-21T23:17:32.650Z,20.90
2018-12-21T23:20:01.040Z,21.83
2018-12-21T23:22:29.179Z,19.43
2018-12-21T23:24:57.325Z,23.30
2018-12-21T23:27:25.552Z,19.43
2018-12-21T23:29:53.834Z,19.90
2018-12-21T23:32:22.101Z,20.43
2018-12-21T23:34:50.323Z,18.53
2018-12-21T23:37:18.536Z,18.17
2018-12-21T23:39:46.862Z,18.40
2018-12-21T23:42:15.177Z,15.87
2018-12-21T23:44:43.345Z,17.93
2018-12-21T23:47:11.895Z,14.27
2018-12-21T23:49:40.089Z,18.03
2018-12-21T23:52:08.256Z,14.97
2018-12-21T23:54:36.552Z,12.10
2018-12-21T23:57:04.694Z,12.23
2018-12-21T23:59:32.958Z,12.17
